Time;durP1;ratioP1;P1;durP2;ratioP2;P2;SDS_P1;SDS_P2;PMS_P1;PMS_P2;Temp;Humidity;BMP_temperature;BMP_pressure;BME280_temperature;BME280_humidity;BME280_pressure;Samples;Min_cycle;Max_cycle;Signal;HPM_P1;HPM_P2
2021/09/07 00:05:09;;;;;;;7.50;4.90;;;;;;;10.35;61.55;100357.70;469502;1194;143298;-62
2021/09/07 00:15:16;;;;;;;7.50;5.60;;;;;;;10.39;62.07;100353.34;469014;1194;141746;-62
2021/09/07 00:25:19;;;;;;;10.00;5.30;;;;;;;10.38;62.32;100337.63;472770;1194;141228;-61
2021/09/07 00:35:24;;;;;;;7.20;5.30;;;;;;;10.33;62.68;100338.08;471921;1194;145487;-61
2021/09/07 00:45:27;;;;;;;9.60;5.30;;;;;;;10.21;62.90;100340.23;472713;1194;141758;-61
2021/09/07 00:55:31;;;;;;;6.50;4.80;;;;;;;10.03;63.39;100326.41;472846;1193;142124;-62
2021/09/07 01:05:34;;;;;;;12.10;6.50;;;;;;;9.89;63.86;100330.41;472299;1182;142936;-62
2021/09/07 01:15:37;;;;;;;11.10;5.90;;;;;;;9.88;64.31;100328.73;456831;1194;144238;-60
2021/09/07 01:25:41;;;;;;;7.80;5.80;;;;;;;9.82;64.47;100318.04;472591;1194;142372;-62
2021/09/07 01:35:44;;;;;;;9.40;5.90;;;;;;;9.68;64.87;100309.23;473099;1182;142168;-61
2021/09/07 01:45:48;;;;;;;7.90;5.80;;;;;;;9.60;65.45;100306.69;472821;1194;141878;-61
2021/09/07 01:55:51;;;;;;;7.30;6.20;;;;;;;9.50;65.56;100304.18;472112;1193;141559;-61
2021/09/07 02:05:54;;;;;;;7.40;5.40;;;;;;;9.38;65.96;100299.51;472783;1194;143301;-61
2021/09/07 02:15:58;;;;;;;9.70;6.10;;;;;;;9.27;66.28;100296.37;472889;1194;142439;-61
2021/09/07 02:26:01;;;;;;;8.50;6.70;;;;;;;9.24;66.66;100282.00;470287;1194;142138;-60
2021/09/07 02:36:04;;;;;;;8.80;5.50;;;;;;;9.24;66.99;100272.02;459688;1194;141502;-61
2021/09/07 02:46:07;;;;;;;11.50;6.90;;;;;;;9.19;66.89;100271.74;468675;1194;141425;-60
2021/09/07 02:56:11;;;;;;;12.70;8.30;;;;;;;9.11;67.06;100261.95;471109;1194;142418;-63
2021/09/07 03:06:16;;;;;;;11.90;6.80;;;;;;;9.07;67.37;100255.02;472915;1190;141150;-61
2021/09/07 03:16:20;;;;;;;8.40;6.00;;;;;;;8.97;67.66;100241.48;472904;1194;141570;-61
2021/09/07 03:26:24;;;;;;;7.80;5.70;;;;;;;8.90;67.79;100234.66;472060;1194;142469;-62
2021/09/07 03:36:27;;;;;;;9.00;6.30;;;;;;;8.94;67.88;100236.73;473107;1191;141427;-61
2021/09/07 03:46:31;;;;;;;10.50;6.90;;;;;;;9.03;67.82;100251.50;472916;1194;141778;-61
2021/09/07 03:56:35;;;;;;;6.60;6.00;;;;;;;9.15;67.90;100246.63;472037;1194;142041;-60
2021/09/07 04:06:39;;;;;;;11.90;6.80;;;;;;;9.23;67.76;100243.75;472713;1194;141962;-60
2021/09/07 04:16:43;;;;;;;10.30;6.50;;;;;;;9.30;67.78;100237.85;472774;1192;142604;-57
2021/09/07 04:26:46;;;;;;;7.10;6.40;;;;;;;9.42;67.44;100242.67;472449;1194;210877;-60
2021/09/07 04:36:49;;;;;;;8.40;5.70;;;;;;;9.72;67.07;100245.09;472752;1193;141784;-60
2021/09/07 04:46:52;;;;;;;8.80;6.50;;;;;;;10.02;66.50;100250.03;472056;1191;141941;-61
2021/09/07 04:56:55;;;;;;;14.20;6.30;;;;;;;10.50;65.70;100251.97;472796;1193;146827;-62
2021/09/07 05:06:58;;;;;;;12.00;6.70;;;;;;;11.07;64.79;100251.38;472831;1194;142726;-61
2021/09/07 05:17:01;;;;;;;7.00;5.30;;;;;;;11.92;63.65;100248.79;472006;1195;143219;-62
2021/09/07 05:27:06;;;;;;;8.90;5.70;;;;;;;13.36;61.45;100247.75;472384;1194;141529;-62
2021/09/07 05:37:09;;;;;;;10.20;5.90;;;;;;;15.14;58.60;100241.46;472379;1194;141769;-61
2021/09/07 05:47:12;;;;;;;10.10;5.50;;;;;;;15.38;56.79;100254.57;472227;1191;143122;-61
2021/09/07 05:57:15;;;;;;;11.60;5.80;;;;;;;15.82;55.20;100257.48;472742;1194;142159;-61
2021/09/07 06:07:18;;;;;;;12.00;5.80;;;;;;;16.13;54.44;100256.58;473002;1191;142213;-62
2021/09/07 06:17:22;;;;;;;12.90;5.80;;;;;;;17.16;53.29;100257.67;472087;1194;141742;-62
2021/09/07 06:27:26;;;;;;;9.60;5.10;;;;;;;20.01;49.73;100258.08;468660;1193;141058;-62
2021/09/07 06:37:29;;;;;;;6.10;4.80;;;;;;;25.09;45.05;100250.66;470717;1194;141254;-62
2021/09/07 06:47:36;;;;;;;6.50;4.20;;;;;;;29.03;39.65;100254.34;471952;1193;142015;-63
2021/09/07 06:57:40;;;;;;;6.30;5.10;;;;;;;28.80;34.91;100257.77;470898;1194;141770;-61
2021/09/07 07:07:44;;;;;;;7.50;5.30;;;;;;;28.07;35.42;100260.98;471951;1194;140839;-60
2021/09/07 07:17:47;;;;;;;7.10;5.00;;;;;;;33.40;30.77;100270.38;472829;1194;141293;-59
2021/09/07 07:27:51;;;;;;;7.10;4.30;;;;;;;34.13;28.22;100269.33;472938;1192;141349;-63
2021/09/07 07:37:55;;;;;;;4.80;4.30;;;;;;;37.22;25.61;100269.33;472007;1194;194062;-64
2021/09/07 07:47:58;;;;;;;5.20;4.10;;;;;;;39.93;23.01;100268.54;472896;1194;141457;-63
2021/09/07 07:58:01;;;;;;;6.60;5.00;;;;;;;41.50;20.89;100266.16;472808;1194;141457;-62
2021/09/07 08:08:06;;;;;;;6.40;4.10;;;;;;;42.12;19.64;100269.17;472071;1194;141378;-60
2021/09/07 08:18:10;;;;;;;8.50;3.80;;;;;;;43.31;18.23;100264.90;472874;1194;141132;-61
2021/09/07 08:28:13;;;;;;;3.90;3.40;;;;;;;44.30;16.96;100262.65;472833;1194;142134;-61
2021/09/07 08:38:16;;;;;;;4.30;3.70;;;;;;;43.30;16.17;100261.38;468026;1194;140860;-63
2021/09/07 08:48:21;;;;;;;6.20;3.60;;;;;;;35.66;18.60;100259.02;462659;1194;141358;-64
2021/09/07 08:58:24;;;;;;;;;;;;;;;29.89;22.01;100260.65;472906;1194;144749;-62
2021/09/07 09:08:28;;;;;;;4.90;3.40;;;;;;;27.15;24.68;100264.05;472284;1194;130113;-60
2021/09/07 09:18:35;;;;;;;4.20;2.50;;;;;;;25.31;26.10;100272.98;472467;1195;141163;-62
2021/09/07 09:28:39;;;;;;;4.90;3.50;;;;;;;24.71;27.80;100269.42;472401;1195;141685;-67
2021/09/07 09:38:44;;;;;;;5.60;3.00;;;;;;;24.05;29.16;100270.08;456682;1191;10001365;-63
2021/09/07 09:48:48;;;;;;;5.80;3.40;;;;;;;23.29;29.76;100265.00;460529;1194;140530;-61
2021/09/07 09:58:54;;;;;;;4.60;2.90;;;;;;;22.83;30.85;100266.86;460161;1194;141772;-62
2021/09/07 10:08:57;;;;;;;7.00;4.00;;;;;;;22.81;31.56;100265.77;472727;1194;141500;-62
2021/09/07 10:19:08;;;;;;;4.90;3.30;;;;;;;22.67;32.16;100255.11;470142;1194;141851;-63
2021/09/07 10:29:13;;;;;;;4.80;3.00;;;;;;;22.42;32.45;100263.35;457277;1195;181042;-62
2021/09/07 10:39:29;;;;;;;4.60;2.60;;;;;;;22.01;33.41;100254.85;472665;1194;141080;-63
2021/09/07 10:49:50;;;;;;;3.90;2.40;;;;;;;21.75;33.74;100245.02;472517;1183;141412;-60
2021/09/07 10:59:56;;;;;;;5.20;2.70;;;;;;;21.51;34.51;100238.08;465732;1194;146253;-60
2021/09/07 11:10:00;;;;;;;5.80;3.50;;;;;;;21.49;34.44;100239.39;472279;1194;143477;-61
2021/09/07 11:20:06;;;;;;;5.20;3.20;;;;;;;21.35;35.16;100231.67;471503;1194;142283;-61
2021/09/07 11:30:25;;;;;;;5.70;3.00;;;;;;;21.32;35.29;100233.17;472594;1194;140868;-60
2021/09/07 11:40:31;;;;;;;6.60;3.40;;;;;;;21.19;35.70;100236.23;472584;1194;141584;-56
2021/09/07 11:50:36;;;;;;;4.30;3.10;;;;;;;21.26;36.19;100244.33;471770;1194;141473;-61
2021/09/07 12:00:39;;;;;;;6.70;4.80;;;;;;;21.22;36.52;100236.21;472274;1194;140565;-62
2021/09/07 12:10:52;;;;;;;5.60;3.80;;;;;;;21.04;36.97;100233.27;460592;1190;141973;-59
2021/09/07 12:21:22;;;;;;;5.60;3.40;;;;;;;20.96;37.42;100232.10;472731;1184;210156;-59
2021/09/07 12:31:29;;;;;;;6.30;4.30;;;;;;;20.92;38.11;100222.20;471022;1194;142085;-58
2021/09/07 12:41:32;;;;;;;7.20;3.40;;;;;;;20.92;38.27;100218.42;468947;1194;145025;-58
2021/09/07 12:51:36;;;;;;;4.90;3.90;;;;;;;20.90;38.63;100215.94;472743;1194;141290;-60
2021/09/07 13:01:39;;;;;;;6.00;3.70;;;;;;;20.89;38.73;100213.73;472715;1194;141275;-60
2021/09/07 13:11:43;;;;;;;3.60;3.10;;;;;;;20.98;39.16;100201.85;472695;1194;142658;-61
2021/09/07 13:21:46;;;;;;;5.80;3.90;;;;;;;21.05;39.10;100196.52;472729;1194;142244;-60
2021/09/07 13:31:51;;;;;;;5.60;4.80;;;;;;;21.09;39.20;100182.96;471963;1194;142256;-57
2021/09/07 13:41:55;;;;;;;6.70;4.20;;;;;;;21.18;39.52;100181.01;472691;1193;141297;-58
2021/09/07 13:51:57;;;;;;;7.00;5.30;;;;;;;21.14;39.55;100181.17;465459;1194;145959;-54
2021/09/07 14:02:01;;;;;;;4.80;4.10;;;;;;;21.16;39.68;100186.23;470916;1194;142059;-59
2021/09/07 14:12:05;;;;;;;7.30;5.00;;;;;;;21.13;39.82;100182.64;472872;1194;142743;-57
2021/09/07 14:22:09;;;;;;;6.70;4.20;;;;;;;21.08;40.31;100174.71;472920;1194;141462;-54
2021/09/07 14:32:12;;;;;;;7.80;4.80;;;;;;;21.19;40.52;100174.80;472153;1183;140833;-58
2021/09/07 14:42:16;;;;;;;8.30;6.00;;;;;;;21.20;40.47;100178.16;472548;1194;140903;-58
2021/09/07 14:52:23;;;;;;;9.10;5.00;;;;;;;21.17;40.64;100175.57;472899;1194;143145;-58
2021/09/07 15:02:26;;;;;;;7.40;5.40;;;;;;;21.17;40.86;100175.66;472121;1194;140862;-58
2021/09/07 15:12:31;;;;;;;7.50;4.90;;;;;;;21.10;41.05;100165.21;472623;1194;142229;-60
2021/09/07 15:22:34;;;;;;;9.80;5.10;;;;;;;21.02;41.39;100170.59;456979;1182;10001672;-59
2021/09/07 15:32:40;;;;;;;10.10;5.50;;;;;;;20.91;41.71;100170.88;471712;1194;141538;-58
2021/09/07 15:42:43;;;;;;;6.50;5.00;;;;;;;20.79;41.90;100172.48;472900;1194;141256;-58
2021/09/07 15:52:48;;;;;;;9.60;5.60;;;;;;;20.66;42.53;100175.69;472256;1191;140977;-59
2021/09/07 16:02:56;;;;;;;6.40;4.30;;;;;;;20.50;42.64;100174.42;470139;1194;141706;-58
2021/09/07 16:13:00;;;;;;;11.50;6.10;;;;;;;20.34;42.95;100177.59;464362;1194;141197;-59
2021/09/07 16:23:04;;;;;;;7.30;5.90;;;;;;;20.13;43.61;100171.90;455590;1195;142118;-58
2021/09/07 16:33:07;;;;;;;7.80;5.20;;;;;;;19.85;44.15;100171.29;472884;1191;141804;-57
2021/09/07 16:43:10;;;;;;;6.40;5.10;;;;;;;19.54;44.86;100171.41;464975;1193;140353;-58
2021/09/07 16:53:17;;;;;;;8.50;4.80;;;;;;;19.23;45.49;100168.28;468613;1194;141113;-58
2021/09/07 17:03:19;;;;;;;8.10;5.40;;;;;;;18.87;46.12;100164.92;472147;1194;145399;-58
2021/09/07 17:13:24;;;;;;;6.90;5.10;;;;;;;18.46;47.17;100167.80;471664;1193;141870;-55
2021/09/07 17:23:28;;;;;;;8.00;5.70;;;;;;;18.07;47.85;100179.16;459740;1194;145089;-56
2021/09/07 17:33:42;;;;;;;8.30;6.20;;;;;;;17.68;48.93;100187.72;470912;1194;141682;-56
2021/09/07 17:43:45;;;;;;;9.30;6.90;;;;;;;17.32;50.23;100196.73;471995;1194;198143;-57
2021/09/07 17:53:49;;;;;;;16.50;8.00;;;;;;;16.98;52.26;100197.87;472675;1194;142427;-58
2021/09/07 18:03:53;;;;;;;15.50;8.90;;;;;;;16.60;52.93;100213.58;470581;1193;141895;-56
2021/09/07 18:13:58;;;;;;;11.50;7.10;;;;;;;16.44;52.98;100216.91;472086;1194;142064;-58
2021/09/07 18:24:01;;;;;;;16.00;6.90;;;;;;;16.28;53.33;100227.87;473013;1192;143077;-57
2021/09/07 18:34:07;;;;;;;9.80;5.10;;;;;;;16.11;53.74;100230.98;468183;1193;141483;-56
2021/09/07 18:44:11;;;;;;;17.10;6.90;;;;;;;15.99;54.13;100233.29;471911;1194;141493;-57
2021/09/07 18:54:14;;;;;;;11.60;6.20;;;;;;;15.78;54.71;100232.70;459609;1194;142621;-54
2021/09/07 19:04:18;;;;;;;10.30;6.10;;;;;;;15.58;55.17;100243.74;472804;1194;143064;-57
2021/09/07 19:14:21;;;;;;;10.90;7.00;;;;;;;15.41;55.65;100244.48;472029;1194;142255;-57
2021/09/07 19:24:25;;;;;;;9.60;6.60;;;;;;;15.28;56.02;100246.66;466509;1187;142485;-55
2021/09/07 19:34:29;;;;;;;9.70;6.60;;;;;;;15.21;56.36;100249.30;472692;1195;142821;-56
2021/09/07 19:44:33;;;;;;;8.60;7.60;;;;;;;15.08;56.64;100249.14;471306;1194;141449;-57
2021/09/07 19:54:36;;;;;;;11.00;6.40;;;;;;;14.93;57.06;100242.99;472693;1194;143293;-57
2021/09/07 20:04:40;;;;;;;8.70;7.20;;;;;;;14.92;57.20;100238.29;472788;1195;142075;-57
2021/09/07 20:14:43;;;;;;;12.00;7.20;;;;;;;14.98;57.22;100243.70;472857;1195;141902;-57
2021/09/07 20:24:46;;;;;;;12.80;7.50;;;;;;;14.90;57.33;100245.66;472461;1194;143093;-56
2021/09/07 20:34:50;;;;;;;11.30;7.30;;;;;;;14.71;57.67;100252.66;471635;1195;143399;-56
2021/09/07 20:44:53;;;;;;;12.70;8.40;;;;;;;14.52;57.73;100250.09;472281;1194;142427;-56
2021/09/07 20:54:57;;;;;;;14.40;8.60;;;;;;;14.32;58.06;100259.34;471054;1194;141115;-56
2021/09/07 21:05:01;;;;;;;13.50;9.00;;;;;;;14.15;58.29;100259.45;471518;1194;141794;-56
2021/09/07 21:15:06;;;;;;;11.70;7.00;;;;;;;14.01;58.52;100252.16;472313;1194;141387;-56
2021/09/07 21:25:11;;;;;;;11.40;8.20;;;;;;;13.85;58.79;100249.67;472219;1195;141912;-55
2021/09/07 21:35:14;;;;;;;12.80;8.00;;;;;;;13.81;59.28;100250.64;469112;1193;142652;-55
2021/09/07 21:45:19;;;;;;;13.00;9.20;;;;;;;13.84;59.27;100249.73;455908;1195;141966;-55
2021/09/07 21:55:22;;;;;;;12.00;9.60;;;;;;;13.74;59.48;100255.69;455640;1194;141239;-57
2021/09/07 22:05:25;;;;;;;13.50;9.10;;;;;;;13.50;59.86;100262.16;455239;1195;141762;-57
2021/09/07 22:15:29;;;;;;;16.20;9.90;;;;;;;13.22;60.49;100259.05;463840;1194;140973;-57
2021/09/07 22:25:33;;;;;;;12.80;8.00;;;;;;;12.97;61.30;100259.73;472381;1195;141980;-58
2021/09/07 22:35:36;;;;;;;12.20;9.20;;;;;;;12.88;61.96;100265.38;471875;1194;142973;-57
2021/09/07 22:45:39;;;;;;;13.80;8.90;;;;;;;12.82;62.33;100272.61;472588;1194;141558;-58
2021/09/07 22:55:43;;;;;;;10.50;8.00;;;;;;;12.70;62.66;100277.19;470701;1194;141259;-58
2021/09/07 23:05:46;;;;;;;11.60;8.80;;;;;;;12.48;63.18;100273.98;464383;1194;142357;-57
2021/09/07 23:15:49;;;;;;;17.90;7.90;;;;;;;12.24;63.73;100261.38;472536;1194;142642;-58
2021/09/07 23:25:52;;;;;;;11.30;9.30;;;;;;;12.10;64.29;100260.48;469984;1192;143149;-58
2021/09/07 23:35:55;;;;;;;12.00;8.70;;;;;;;12.08;64.57;100252.83;463964;1195;143669;-57
2021/09/07 23:45:58;;;;;;;12.60;8.50;;;;;;;11.94;64.55;100253.09;469699;1194;142462;-58
2021/09/07 23:56:02;;;;;;;13.10;10.20;;;;;;;11.71;65.02;100255.32;472064;1191;142418;-58
